createdAt,value
2018-03-04T00:01:58.486Z,44.52
2018-03-04T00:04:25.911Z,44.41
2018-03-04T00:06:53.381Z,44.46
2018-03-04T00:09:20.840Z,44.52
2018-03-04T00:11:48.613Z,44.48
2018-03-04T00:14:16.065Z,44.64
2018-03-04T00:16:43.522Z,44.55
2018-03-04T00:19:10.980Z,44.89
2018-03-04T00:21:38.444Z,44.73
2018-03-04T00:24:05.891Z,44.89
2018-03-04T00:26:33.338Z,44.89
2018-03-04T00:29:00.772Z,44.81
2018-03-04T00:31:28.222Z,45.13
2018-03-04T00:33:55.700Z,45.04
2018-03-04T00:36:23.204Z,45.08
2018-03-04T00:38:50.641Z,44.92
2018-03-04T00:41:18.144Z,45.16
2018-03-04T00:43:45.570Z,45.37
2018-03-04T00:46:13.058Z,45.18
2018-03-04T00:48:40.496Z,45.37
2018-03-04T00:51:07.986Z,45.29
2018-03-04T00:53:35.439Z,45.44
2018-03-04T00:56:02.891Z,45.60
2018-03-04T00:58:30.347Z,45.40
2018-03-04T01:00:57.838Z,45.39
2018-03-04T01:03:25.304Z,45.42
2018-03-04T01:05:52.766Z,45.42
2018-03-04T01:08:20.215Z,45.40
2018-03-04T01:10:47.676Z,45.86
2018-03-04T01:13:15.103Z,46.01
2018-03-04T01:15:43.299Z,46.09
2018-03-04T01:18:10.766Z,46.24
2018-03-04T01:20:38.826Z,46.09
2018-03-04T01:23:06.284Z,45.98
2018-03-04T01:25:35.140Z,46.00
2018-03-04T01:28:02.779Z,45.97
2018-03-04T01:30:30.245Z,46.01
2018-03-04T01:32:57.763Z,45.95
2018-03-04T01:35:25.319Z,46.01
2018-03-04T01:37:52.841Z,46.41
2018-03-04T01:40:20.427Z,46.01
2018-03-04T01:42:47.944Z,46.02
2018-03-04T01:45:15.470Z,46.03
2018-03-04T01:47:42.986Z,46.25
2018-03-04T01:50:10.615Z,46.27
2018-03-04T01:52:38.100Z,46.34
2018-03-04T01:55:05.607Z,46.24
2018-03-04T01:57:33.131Z,46.04
2018-03-04T02:00:00.649Z,46.09
2018-03-04T02:02:28.161Z,46.34
2018-03-04T02:04:55.646Z,46.31
2018-03-04T02:07:23.241Z,46.27
2018-03-04T02:09:50.781Z,46.18
2018-03-04T02:12:18.429Z,46.61
2018-03-04T02:14:45.979Z,46.44
2018-03-04T02:17:13.551Z,46.25
2018-03-04T02:19:41.043Z,46.49
2018-03-04T02:22:08.635Z,46.53
2018-03-04T02:24:37.725Z,46.29
2018-03-04T02:27:05.253Z,46.46
2018-03-04T02:29:33.969Z,46.51
2018-03-04T02:32:02.718Z,46.74
2018-03-04T02:34:30.225Z,46.58
2018-03-04T02:36:58.639Z,46.60
2018-03-04T02:39:26.266Z,46.80
2018-03-04T02:41:53.741Z,46.67
2018-03-04T02:44:21.346Z,46.69
2018-03-04T02:46:48.829Z,46.57
2018-03-04T02:51:58.191Z,47.00
2018-03-04T02:54:25.687Z,46.99
2018-03-04T02:56:58.092Z,47.06
2018-03-04T02:59:25.572Z,47.03
2018-03-04T03:01:52.988Z,47.00
2018-03-04T03:04:20.424Z,47.14
2018-03-04T03:06:47.908Z,47.13
2018-03-04T03:09:15.397Z,47.31
2018-03-04T03:11:42.894Z,47.15
2018-03-04T03:14:10.351Z,47.21
2018-03-04T03:16:37.807Z,47.22
2018-03-04T03:19:05.235Z,47.42
2018-03-04T03:21:32.702Z,47.16
2018-03-04T03:24:00.156Z,47.29
2018-03-04T03:26:27.585Z,47.24
2018-03-04T03:28:55.039Z,47.58
2018-03-04T03:31:22.471Z,47.98
2018-03-04T03:33:49.954Z,47.89
2018-03-04T03:36:17.445Z,48.28
2018-03-04T03:38:44.903Z,48.48
2018-03-04T03:41:12.631Z,48.47
2018-03-04T03:43:40.080Z,48.51
2018-03-04T03:46:07.516Z,48.68
2018-03-04T03:48:34.947Z,48.88
2018-03-04T03:51:02.392Z,48.96
2018-03-04T03:53:29.835Z,49.22
2018-03-04T03:55:57.280Z,49.27
2018-03-04T03:58:24.741Z,49.18
2018-03-04T04:00:52.175Z,49.26
2018-03-04T04:03:19.625Z,49.40
2018-03-04T04:05:52.005Z,49.57
2018-03-04T04:08:19.456Z,49.26
2018-03-04T04:10:46.888Z,49.55
2018-03-04T04:13:14.321Z,49.68
2018-03-04T04:15:41.768Z,49.25
2018-03-04T04:18:09.218Z,49.61
2018-03-04T04:20:36.669Z,49.64
2018-03-04T04:23:04.127Z,49.52
2018-03-04T04:25:31.576Z,49.73
2018-03-04T04:27:59.139Z,49.95
2018-03-04T04:30:26.609Z,49.90
2018-03-04T04:32:54.079Z,50.01
2018-03-04T04:35:21.520Z,49.97
2018-03-04T04:37:48.994Z,49.86
2018-03-04T04:40:16.451Z,50.05
2018-03-04T04:42:43.902Z,49.64
2018-03-04T04:45:11.363Z,49.55
2018-03-04T04:47:38.820Z,50.01
2018-03-04T04:50:06.262Z,49.86
2018-03-04T04:52:33.716Z,49.89
2018-03-04T04:55:01.178Z,49.55
2018-03-04T04:57:28.637Z,50.02
2018-03-04T04:59:56.109Z,49.87
2018-03-04T05:02:23.570Z,49.91
2018-03-04T05:04:51.010Z,49.84
2018-03-04T05:07:18.488Z,49.98
2018-03-04T05:09:45.930Z,50.43
2018-03-04T05:12:13.392Z,50.08
2018-03-04T05:14:40.832Z,49.89
2018-03-04T05:17:08.271Z,50.02
2018-03-04T05:19:35.728Z,50.28
2018-03-04T05:22:04.585Z,50.41
2018-03-04T05:24:32.073Z,50.45
2018-03-04T05:27:00.437Z,50.68
2018-03-04T05:29:27.933Z,50.82
2018-03-04T05:31:55.418Z,50.64
2018-03-04T05:37:04.806Z,51.21
2018-03-04T05:39:32.278Z,51.32
2018-03-04T05:41:59.707Z,51.05
2018-03-04T05:44:27.146Z,51.67
2018-03-04T05:46:54.613Z,51.62
2018-03-04T05:49:22.067Z,51.18
2018-03-04T05:51:49.498Z,51.40
2018-03-04T05:54:16.950Z,51.92
2018-03-04T05:56:44.390Z,51.89
2018-03-04T05:59:12.696Z,51.84
2018-03-04T06:01:41.068Z,52.09
2018-03-04T06:04:08.529Z,51.94
2018-03-04T06:06:35.984Z,51.47
2018-03-04T06:09:03.436Z,52.00
2018-03-04T06:11:30.902Z,51.75
2018-03-04T06:13:58.378Z,51.95
2018-03-04T06:16:25.832Z,52.07
2018-03-04T06:18:53.346Z,51.84
2018-03-04T06:21:20.790Z,51.60
2018-03-04T06:23:48.255Z,52.49
2018-03-04T06:26:15.719Z,52.08
2018-03-04T06:28:43.159Z,52.13
2018-03-04T06:31:10.611Z,52.20
2018-03-04T06:33:38.051Z,51.94
2018-03-04T06:36:05.505Z,52.04
2018-03-04T06:38:32.949Z,52.01
2018-03-04T06:41:00.400Z,51.58
2018-03-04T06:43:27.832Z,52.00
2018-03-04T06:45:55.265Z,51.94
2018-03-04T06:48:22.708Z,51.49
2018-03-04T06:50:50.190Z,52.08
2018-03-04T06:53:17.646Z,51.94
2018-03-04T06:55:45.110Z,52.25
2018-03-04T06:58:12.552Z,52.25
2018-03-04T07:00:39.976Z,52.32
2018-03-04T07:03:07.424Z,52.02
2018-03-04T07:05:34.874Z,52.14
2018-03-04T07:08:02.327Z,51.98
2018-03-04T07:10:29.808Z,52.19
2018-03-04T07:12:57.208Z,52.00
2018-03-04T07:15:24.659Z,51.75
2018-03-04T07:17:52.088Z,51.69
2018-03-04T07:20:19.564Z,51.74
2018-03-04T07:22:47.020Z,52.18
2018-03-04T07:25:14.520Z,52.11
2018-03-04T07:27:41.958Z,52.44
2018-03-04T07:30:09.442Z,52.30
2018-03-04T07:32:36.887Z,51.81
2018-03-04T07:35:04.417Z,51.43
2018-03-04T07:37:31.830Z,51.17
2018-03-04T07:39:59.286Z,51.16
2018-03-04T07:42:27.004Z,51.24
2018-03-04T07:44:54.459Z,51.58
2018-03-04T07:47:31.503Z,51.71
2018-03-04T07:49:58.987Z,51.44
2018-03-04T07:52:26.453Z,51.51
2018-03-04T07:54:53.964Z,51.72
2018-03-04T07:57:21.396Z,51.67
2018-03-04T07:59:48.879Z,51.95
2018-03-04T08:02:16.338Z,51.76
2018-03-04T08:04:43.775Z,51.95
2018-03-04T08:07:11.284Z,51.91
2018-03-04T08:09:38.739Z,51.68
2018-03-04T08:12:06.191Z,52.05
2018-03-04T08:14:33.661Z,51.98
2018-03-04T08:17:01.152Z,51.68
2018-03-04T08:19:28.612Z,51.81
2018-03-04T08:21:56.133Z,51.77
2018-03-04T08:24:35.419Z,52.00
2018-03-04T08:27:14.640Z,51.71
2018-03-04T08:29:42.108Z,51.42
2018-03-04T08:32:09.615Z,51.59
2018-03-04T08:34:37.109Z,51.42
2018-03-04T08:37:04.565Z,51.22
2018-03-04T08:39:32.074Z,51.28
2018-03-04T08:41:59.477Z,51.13
2018-03-04T08:44:26.952Z,51.06
2018-03-04T08:46:54.453Z,51.02
2018-03-04T08:49:21.945Z,50.71
2018-03-04T08:51:49.414Z,50.87
2018-03-04T08:54:16.872Z,50.67
2018-03-04T08:56:44.425Z,50.66
2018-03-04T08:59:11.868Z,50.52
2018-03-04T09:01:39.343Z,50.06
2018-03-04T09:04:06.805Z,50.13
2018-03-04T09:06:34.279Z,49.95
2018-03-04T09:09:01.826Z,49.89
2018-03-04T09:11:29.280Z,49.61
2018-03-04T09:13:56.746Z,49.45
2018-03-04T09:16:24.221Z,49.57
2018-03-04T09:18:51.685Z,49.52
2018-03-04T09:21:19.152Z,49.47
2018-03-04T09:23:46.620Z,49.35
2018-03-04T09:26:14.105Z,49.25
2018-03-04T09:28:41.700Z,48.89
2018-03-04T09:31:09.129Z,48.68
2018-03-04T09:33:36.605Z,48.23
2018-03-04T09:36:04.118Z,47.33
2018-03-04T09:38:31.622Z,45.30
2018-03-04T09:40:59.075Z,44.08
2018-03-04T09:43:26.553Z,40.89
2018-03-04T09:45:59.241Z,37.68
2018-03-04T09:48:26.721Z,34.24
2018-03-04T09:50:54.225Z,32.36
2018-03-04T09:53:21.680Z,30.67
2018-03-04T09:55:49.177Z,30.42
2018-03-04T09:58:16.659Z,31.83
2018-03-04T10:00:44.231Z,32.91
2018-03-04T10:03:11.804Z,33.26
2018-03-04T10:05:39.263Z,34.13
2018-03-04T10:08:06.731Z,35.79
2018-03-04T10:10:34.196Z,37.63
2018-03-04T10:13:01.645Z,39.21
2018-03-04T10:15:29.105Z,40.53
2018-03-04T10:17:56.745Z,41.76
2018-03-04T10:20:24.216Z,42.49
2018-03-04T10:22:51.696Z,42.93
2018-03-04T10:25:19.167Z,42.75
2018-03-04T10:27:46.661Z,41.06
2018-03-04T10:30:15.351Z,38.50
2018-03-04T10:32:42.873Z,35.24
2018-03-04T10:35:10.667Z,32.33
2018-03-04T10:37:38.226Z,30.90
2018-03-04T10:40:05.751Z,30.64
2018-03-04T10:42:33.235Z,29.92
2018-03-04T10:45:00.720Z,30.26
2018-03-04T10:47:28.219Z,31.08
2018-03-04T10:49:55.697Z,32.24
2018-03-04T10:52:23.236Z,32.19
2018-03-04T10:54:50.746Z,33.19
2018-03-04T10:57:18.215Z,34.19
2018-03-04T10:59:45.693Z,35.70
2018-03-04T11:02:18.800Z,35.89
2018-03-04T11:04:46.251Z,36.77
2018-03-04T11:07:13.771Z,37.09
2018-03-04T11:09:41.266Z,36.70
2018-03-04T11:12:08.706Z,37.59
2018-03-04T11:14:36.179Z,37.19
2018-03-04T11:17:03.755Z,37.53
2018-03-04T11:19:31.225Z,38.14
2018-03-04T11:21:58.722Z,38.91
2018-03-04T11:24:26.205Z,39.99
2018-03-04T11:26:53.665Z,40.33
2018-03-04T11:29:21.126Z,40.65
2018-03-04T11:31:48.587Z,41.02
2018-03-04T11:34:16.120Z,41.24
2018-03-04T11:36:43.565Z,42.17
2018-03-04T11:39:11.016Z,42.08
2018-03-04T11:41:38.492Z,42.29
2018-03-04T11:44:06.019Z,42.26
2018-03-04T11:46:33.485Z,42.34
2018-03-04T11:49:00.935Z,42.34
2018-03-04T11:51:28.411Z,41.82
2018-03-04T11:53:55.879Z,41.01
2018-03-04T11:56:23.377Z,40.39
2018-03-04T11:58:50.853Z,39.30
2018-03-04T12:01:18.319Z,38.62
2018-03-04T12:03:45.802Z,37.31
2018-03-04T12:06:13.289Z,35.84
2018-03-04T12:08:40.757Z,34.80
2018-03-04T12:11:08.230Z,34.83
2018-03-04T12:13:35.730Z,34.38
2018-03-04T12:16:03.182Z,33.54
2018-03-04T12:18:30.695Z,32.98
2018-03-04T12:20:58.160Z,33.04
2018-03-04T12:23:25.608Z,33.11
2018-03-04T12:25:53.162Z,32.58
2018-03-04T12:28:20.672Z,31.78
2018-03-04T12:30:48.126Z,30.95
2018-03-04T12:33:15.660Z,30.78
2018-03-04T12:35:43.111Z,30.05
2018-03-04T12:38:10.635Z,30.64
2018-03-04T12:40:38.135Z,30.32
2018-03-04T12:43:05.617Z,29.61
2018-03-04T12:45:33.183Z,30.52
2018-03-04T12:48:00.751Z,29.98
2018-03-04T12:50:28.226Z,30.67
2018-03-04T12:52:55.791Z,30.92
2018-03-04T12:55:23.269Z,31.00
2018-03-04T12:57:50.735Z,31.37
2018-03-04T13:00:18.179Z,32.56
2018-03-04T13:02:45.732Z,33.86
2018-03-04T13:05:13.148Z,35.03
2018-03-04T13:07:40.711Z,36.12
2018-03-04T13:10:08.252Z,35.98
2018-03-04T13:12:35.800Z,34.76
2018-03-04T13:15:03.284Z,32.88
2018-03-04T13:17:30.789Z,29.60
2018-03-04T13:19:58.292Z,28.25
2018-03-04T13:22:25.754Z,27.53
2018-03-04T13:24:53.254Z,26.35
2018-03-04T13:27:20.756Z,25.03
2018-03-04T13:29:48.202Z,24.39
2018-03-04T13:32:15.726Z,24.35
2018-03-04T13:34:43.186Z,23.63
2018-03-04T13:37:10.688Z,23.72
2018-03-04T13:39:38.143Z,23.42
2018-03-04T13:42:05.652Z,23.21
2018-03-04T13:44:33.115Z,23.97
2018-03-04T13:47:00.636Z,24.10
2018-03-04T13:49:28.110Z,24.70
2018-03-04T13:51:55.614Z,24.58
2018-03-04T13:54:23.074Z,24.61
2018-03-04T13:56:50.522Z,24.53
2018-03-04T13:59:17.998Z,25.13
2018-03-04T14:01:45.479Z,25.14
2018-03-04T14:04:12.950Z,24.87
2018-03-04T14:06:40.436Z,25.32
2018-03-04T14:09:07.929Z,25.89
2018-03-04T14:11:35.383Z,27.05
2018-03-04T14:14:02.838Z,27.52
2018-03-04T14:16:30.318Z,27.64
2018-03-04T14:18:57.768Z,28.29
2018-03-04T14:21:25.234Z,29.00
2018-03-04T14:23:52.806Z,29.03
2018-03-04T14:26:20.289Z,28.72
2018-03-04T14:28:47.824Z,28.93
2018-03-04T14:31:15.320Z,29.68
2018-03-04T14:33:42.798Z,30.15
2018-03-04T14:36:10.282Z,30.56
2018-03-04T14:38:37.751Z,31.34
2018-03-04T14:41:05.305Z,32.31
2018-03-04T14:43:32.761Z,33.14
2018-03-04T14:46:00.236Z,33.67
2018-03-04T14:48:27.690Z,34.21
2018-03-04T14:50:55.324Z,34.43
2018-03-04T14:53:22.766Z,35.11
2018-03-04T14:55:50.242Z,35.79
2018-03-04T14:58:17.716Z,36.39
2018-03-04T15:00:45.193Z,36.67
2018-03-04T15:03:12.662Z,37.04
2018-03-04T15:05:40.142Z,37.43
2018-03-04T15:08:07.604Z,37.54
2018-03-04T15:10:35.049Z,37.86
2018-03-04T15:13:02.584Z,38.07
2018-03-04T15:15:30.047Z,38.09
2018-03-04T15:17:57.590Z,37.86
2018-03-04T15:20:25.051Z,37.74
2018-03-04T15:22:52.587Z,37.67
2018-03-04T15:25:20.016Z,37.57
2018-03-04T15:27:47.578Z,37.57
2018-03-04T15:30:15.101Z,37.87
2018-03-04T15:32:42.563Z,38.08
2018-03-04T15:35:10.105Z,37.95
2018-03-04T15:37:37.610Z,37.89
2018-03-04T15:40:05.053Z,38.13
2018-03-04T15:42:32.514Z,38.31
2018-03-04T15:45:00.011Z,38.50
2018-03-04T15:47:27.472Z,38.62
2018-03-04T15:49:54.965Z,38.84
2018-03-04T15:52:22.431Z,38.80
2018-03-04T15:54:49.880Z,38.83
2018-03-04T15:57:17.356Z,38.89
2018-03-04T15:59:44.867Z,38.96
2018-03-04T16:02:12.447Z,39.00
2018-03-04T16:04:39.855Z,39.11
2018-03-04T16:07:07.353Z,39.29
2018-03-04T16:09:34.854Z,39.45
2018-03-04T16:12:02.366Z,39.60
2018-03-04T16:14:30.491Z,39.74
2018-03-04T16:16:58.537Z,42.06
2018-03-04T16:19:26.638Z,40.62
2018-03-04T16:21:54.123Z,39.99
2018-03-04T16:24:22.468Z,40.03
2018-03-04T16:26:50.007Z,40.21
2018-03-04T16:29:18.339Z,40.46
2018-03-04T16:31:45.814Z,40.64
2018-03-04T16:34:14.645Z,40.76
2018-03-04T16:36:42.152Z,40.99
2018-03-04T16:39:09.653Z,41.29
2018-03-04T16:41:37.156Z,41.41
2018-03-04T16:44:04.644Z,41.66
2018-03-04T16:46:32.172Z,41.95
2018-03-04T16:49:00.404Z,42.00
2018-03-04T16:51:27.957Z,42.22
2018-03-04T16:53:56.658Z,42.36
2018-03-04T16:56:24.114Z,42.66
2018-03-04T16:58:52.115Z,42.76
2018-03-04T17:01:19.681Z,42.93
2018-03-04T17:03:47.149Z,42.91
2018-03-04T17:06:15.008Z,42.95
2018-03-04T17:08:42.452Z,42.99
2018-03-04T17:11:09.888Z,42.88
2018-03-04T17:13:37.400Z,43.10
2018-03-04T17:16:04.832Z,43.05
2018-03-04T17:18:32.369Z,43.07
2018-03-04T17:20:59.860Z,43.01
2018-03-04T17:23:27.366Z,42.91
2018-03-04T17:25:54.856Z,42.85
2018-03-04T17:28:23.280Z,42.89
2018-03-04T17:30:50.815Z,42.96
2018-03-04T17:33:18.333Z,42.78
2018-03-04T17:35:45.872Z,42.90
2018-03-04T17:38:13.357Z,42.93
2018-03-04T17:40:40.794Z,42.91
2018-03-04T17:43:08.271Z,43.06
2018-03-04T17:48:17.494Z,43.13
2018-03-04T17:50:44.989Z,43.24
2018-03-04T17:53:12.627Z,43.35
2018-03-04T17:55:40.125Z,43.86
2018-03-04T17:58:07.581Z,43.93
2018-03-04T18:00:35.094Z,44.22
2018-03-04T18:03:02.616Z,44.15
2018-03-04T18:05:30.123Z,44.75
2018-03-04T18:07:57.615Z,44.69
2018-03-04T18:10:25.100Z,45.22
2018-03-04T18:12:52.677Z,45.29
2018-03-04T18:15:20.151Z,45.52
2018-03-04T18:17:47.621Z,45.87
2018-03-04T18:20:15.086Z,46.41
2018-03-04T18:22:42.539Z,46.57
2018-03-04T18:25:09.998Z,46.81
2018-03-04T18:27:37.481Z,46.95
2018-03-04T18:30:05.015Z,47.42
2018-03-04T18:32:32.578Z,47.63
2018-03-04T18:35:00.070Z,47.63
2018-03-04T18:37:28.040Z,47.64
2018-03-04T18:39:55.928Z,47.59
2018-03-04T18:42:23.407Z,47.74
2018-03-04T18:44:50.875Z,48.44
2018-03-04T18:47:18.397Z,48.65
2018-03-04T18:49:45.918Z,48.65
2018-03-04T18:52:13.463Z,48.86
2018-03-04T18:57:22.909Z,49.25
2018-03-04T18:59:50.393Z,49.30
2018-03-04T19:02:18.559Z,49.28
2018-03-04T19:04:46.098Z,49.66
2018-03-04T19:07:13.842Z,49.93
2018-03-04T19:09:41.471Z,50.00
2018-03-04T19:12:09.058Z,50.15
2018-03-04T19:14:36.552Z,50.45
2018-03-04T19:17:04.709Z,50.14
2018-03-04T19:19:32.181Z,50.67
2018-03-04T19:21:59.659Z,50.87
2018-03-04T19:24:27.191Z,50.87
2018-03-04T19:26:59.722Z,50.94
2018-03-04T19:29:27.202Z,50.85
2018-03-04T19:31:54.675Z,51.10
2018-03-04T19:34:22.149Z,51.13
2018-03-04T19:36:49.669Z,51.14
2018-03-04T19:39:17.226Z,51.32
2018-03-04T19:41:44.669Z,51.13
2018-03-04T19:44:12.207Z,51.31
2018-03-04T19:46:39.704Z,51.32
2018-03-04T19:49:07.184Z,51.29
2018-03-04T19:51:34.663Z,51.30
2018-03-04T19:54:02.157Z,51.39
2018-03-04T19:56:29.718Z,51.25
2018-03-04T19:58:57.251Z,51.36
2018-03-04T20:01:24.679Z,51.44
2018-03-04T20:03:52.171Z,51.64
2018-03-04T20:06:19.640Z,51.82
2018-03-04T20:08:47.193Z,51.64
2018-03-04T20:11:14.730Z,51.99
2018-03-04T20:13:42.225Z,52.02
2018-03-04T20:16:09.835Z,52.05
2018-03-04T20:18:37.409Z,52.36
2018-03-04T20:21:04.895Z,52.62
2018-03-04T20:23:32.382Z,52.91
2018-03-04T20:25:59.939Z,53.00
2018-03-04T20:28:27.471Z,53.13
2018-03-04T20:30:54.951Z,53.12
2018-03-04T20:33:22.455Z,53.56
2018-03-04T20:35:50.049Z,53.42
2018-03-04T20:38:17.562Z,53.42
2018-03-04T20:40:45.074Z,53.57
2018-03-04T20:43:12.550Z,53.67
2018-03-04T20:45:40.075Z,53.81
2018-03-04T20:48:07.633Z,53.86
2018-03-04T20:50:35.163Z,53.99
2018-03-04T20:53:02.634Z,54.14
2018-03-04T20:55:30.141Z,54.01
2018-03-04T20:57:57.665Z,54.04
2018-03-04T21:00:25.131Z,54.39
2018-03-04T21:02:52.614Z,54.48
2018-03-04T21:05:20.905Z,54.49
2018-03-04T21:07:48.411Z,54.42
2018-03-04T21:10:15.891Z,54.45
2018-03-04T21:12:43.455Z,54.48
2018-03-04T21:15:10.883Z,54.68
2018-03-04T21:17:38.417Z,54.72
2018-03-04T21:20:05.929Z,54.56
2018-03-04T21:22:33.439Z,54.33
2018-03-04T21:25:01.169Z,54.51
2018-03-04T21:27:28.624Z,54.46
2018-03-04T21:29:56.129Z,54.48
2018-03-04T21:32:23.636Z,54.41
2018-03-04T21:34:51.085Z,54.31
2018-03-04T21:37:18.575Z,54.31
2018-03-04T21:39:46.075Z,54.26
2018-03-04T21:42:13.611Z,54.11
2018-03-04T21:44:41.041Z,54.27
2018-03-04T21:47:09.396Z,54.10
2018-03-04T21:49:36.876Z,53.90
2018-03-04T21:52:04.311Z,53.75
2018-03-04T21:54:31.815Z,53.64
2018-03-04T21:56:59.318Z,53.44
2018-03-04T21:59:26.808Z,53.14
2018-03-04T22:01:54.277Z,53.03
2018-03-04T22:04:21.788Z,53.20
2018-03-04T22:06:49.299Z,53.14
2018-03-04T22:09:16.811Z,53.34
2018-03-04T22:11:44.260Z,53.05
2018-03-04T22:14:11.699Z,53.02
2018-03-04T22:16:39.195Z,53.13
2018-03-04T22:19:06.727Z,53.00
2018-03-04T22:21:34.212Z,53.04
2018-03-04T22:24:01.755Z,53.18
2018-03-04T22:26:29.303Z,53.24
2018-03-04T22:28:56.758Z,53.15
2018-03-04T22:31:24.230Z,52.99
2018-03-04T22:33:51.715Z,52.87
2018-03-04T22:36:19.211Z,52.94
2018-03-04T22:38:46.700Z,52.84
2018-03-04T22:41:14.229Z,52.71
2018-03-04T22:43:41.718Z,52.82
2018-03-04T22:46:09.267Z,52.60
2018-03-04T22:48:36.902Z,52.70
2018-03-04T22:51:04.367Z,52.68
2018-03-04T22:53:31.863Z,52.85
2018-03-04T22:55:59.339Z,53.05
2018-03-04T22:58:26.778Z,53.15
2018-03-04T23:00:54.318Z,53.17
2018-03-04T23:03:21.766Z,53.12
2018-03-04T23:05:49.208Z,53.24
2018-03-04T23:08:16.655Z,53.27
2018-03-04T23:10:44.093Z,53.31
2018-03-04T23:13:11.566Z,53.23
2018-03-04T23:15:39.013Z,53.28
2018-03-04T23:18:06.498Z,53.35
2018-03-04T23:20:34.072Z,53.46
2018-03-04T23:23:01.523Z,53.50
2018-03-04T23:25:28.988Z,53.59
2018-03-04T23:27:56.442Z,53.65
2018-03-04T23:30:23.879Z,53.60
2018-03-04T23:32:51.324Z,53.69
2018-03-04T23:35:18.762Z,53.66
2018-03-04T23:37:46.229Z,53.63
2018-03-04T23:40:13.692Z,53.67
2018-03-04T23:42:41.146Z,53.71
2018-03-04T23:45:08.581Z,53.77
2018-03-04T23:47:36.028Z,53.71
2018-03-04T23:50:03.537Z,53.82
2018-03-04T23:52:30.977Z,53.93
2018-03-04T23:54:58.438Z,53.83
2018-03-04T23:57:25.914Z,53.94
2018-03-04T23:59:53.380Z,53.90
